sensor_id;sensor_type;location;lat;lon;timestamp;temperature;humidity
75217;HTU21D;63800;51.972;5.682;2023-11-19T00:01:26;-11.89;118.99
75217;HTU21D;63800;51.972;5.682;2023-11-19T00:03:51;-11.86;118.99
75217;HTU21D;63800;51.972;5.682;2023-11-19T00:06:18;-11.90;118.99
75217;HTU21D;63800;51.972;5.682;2023-11-19T00:08:44;-11.91;118.99
75217;HTU21D;63800;51.972;5.682;2023-11-19T00:11:09;-11.85;118.99
75217;HTU21D;63800;51.972;5.682;2023-11-19T00:13:35;-11.82;118.99
75217;HTU21D;63800;51.972;5.682;2023-11-19T00:16:00;-11.71;118.99
75217;HTU21D;63800;51.972;5.682;2023-11-19T00:18:26;-11.75;118.99
75217;HTU21D;63800;51.972;5.682;2023-11-19T00:20:51;-11.78;118.99
75217;HTU21D;63800;51.972;5.682;2023-11-19T00:23:16;-11.78;118.99
75217;HTU21D;63800;51.972;5.682;2023-11-19T00:25:42;-11.73;118.99
75217;HTU21D;63800;51.972;5.682;2023-11-19T00:28:07;-11.77;118.99
75217;HTU21D;63800;51.972;5.682;2023-11-19T00:30:33;-11.60;118.99
75217;HTU21D;63800;51.972;5.682;2023-11-19T00:32:58;-11.54;118.99
75217;HTU21D;63800;51.972;5.682;2023-11-19T00:35:24;-11.44;118.99
75217;HTU21D;63800;51.972;5.682;2023-11-19T00:37:49;-11.37;118.99
75217;HTU21D;63800;51.972;5.682;2023-11-19T00:40:16;-11.34;118.99
75217;HTU21D;63800;51.972;5.682;2023-11-19T00:42:43;-11.25;118.99
75217;HTU21D;63800;51.972;5.682;2023-11-19T00:45:09;-11.24;118.99
75217;HTU21D;63800;51.972;5.682;2023-11-19T00:47:35;-11.23;118.99
75217;HTU21D;63800;51.972;5.682;2023-11-19T00:50:02;-11.23;118.99
75217;HTU21D;63800;51.972;5.682;2023-11-19T00:52:28;-11.22;118.99
75217;HTU21D;63800;51.972;5.682;2023-11-19T00:54:53;-11.22;118.99
75217;HTU21D;63800;51.972;5.682;2023-11-19T00:57:19;-11.12;118.99
75217;HTU21D;63800;51.972;5.682;2023-11-19T00:59:44;-11.11;118.99
75217;HTU21D;63800;51.972;5.682;2023-11-19T01:02:10;-11.12;118.99
75217;HTU21D;63800;51.972;5.682;2023-11-19T01:04:36;-11.06;118.99
75217;HTU21D;63800;51.972;5.682;2023-11-19T01:07:02;-11.09;118.99
75217;HTU21D;63800;51.972;5.682;2023-11-19T01:09:34;-10.97;118.99
75217;HTU21D;63800;51.972;5.682;2023-11-19T01:12:02;-10.99;118.99
75217;HTU21D;63800;51.972;5.682;2023-11-19T01:14:28;-10.94;118.99
75217;HTU21D;63800;51.972;5.682;2023-11-19T01:16:54;-10.90;118.99
75217;HTU21D;63800;51.972;5.682;2023-11-19T01:19:20;-10.90;118.99
75217;HTU21D;63800;51.972;5.682;2023-11-19T01:21:46;-10.91;118.99
75217;HTU21D;63800;51.972;5.682;2023-11-19T01:24:12;-10.92;118.99
75217;HTU21D;63800;51.972;5.682;2023-11-19T01:26:38;-10.85;118.99
75217;HTU21D;63800;51.972;5.682;2023-11-19T01:29:04;-10.82;118.99
75217;HTU21D;63800;51.972;5.682;2023-11-19T01:31:30;-10.77;118.99
75217;HTU21D;63800;51.972;5.682;2023-11-19T01:33:57;-10.80;118.99
75217;HTU21D;63800;51.972;5.682;2023-11-19T01:36:22;-10.78;118.99
75217;HTU21D;63800;51.972;5.682;2023-11-19T01:38:48;-10.75;118.99
75217;HTU21D;63800;51.972;5.682;2023-11-19T01:41:14;-10.74;118.99
75217;HTU21D;63800;51.972;5.682;2023-11-19T01:43:39;-10.74;118.99
75217;HTU21D;63800;51.972;5.682;2023-11-19T01:46:08;-10.73;118.99
75217;HTU21D;63800;51.972;5.682;2023-11-19T01:48:42;-10.73;118.99
75217;HTU21D;63800;51.972;5.682;2023-11-19T01:51:08;-10.72;118.99
75217;HTU21D;63800;51.972;5.682;2023-11-19T01:53:35;-10.71;118.99
75217;HTU21D;63800;51.972;5.682;2023-11-19T01:56:02;-10.70;118.99
75217;HTU21D;63800;51.972;5.682;2023-11-19T01:58:28;-10.72;118.99
75217;HTU21D;63800;51.972;5.682;2023-11-19T02:00:56;-10.74;118.99
75217;HTU21D;63800;51.972;5.682;2023-11-19T02:03:21;-10.73;118.99
75217;HTU21D;63800;51.972;5.682;2023-11-19T02:05:48;-10.70;118.99
75217;HTU21D;63800;51.972;5.682;2023-11-19T02:08:16;-10.66;118.99
75217;HTU21D;63800;51.972;5.682;2023-11-19T02:10:41;-10.65;118.99
75217;HTU21D;63800;51.972;5.682;2023-11-19T02:13:06;-10.63;118.99
75217;HTU21D;63800;51.972;5.682;2023-11-19T02:15:33;-10.62;118.99
75217;HTU21D;63800;51.972;5.682;2023-11-19T02:18:20;-10.65;118.99
75217;HTU21D;63800;51.972;5.682;2023-11-19T02:20:47;-10.63;118.99
75217;HTU21D;63800;51.972;5.682;2023-11-19T02:23:13;-10.65;118.99
75217;HTU21D;63800;51.972;5.682;2023-11-19T02:25:40;-10.63;118.99
75217;HTU21D;63800;51.972;5.682;2023-11-19T02:28:06;-10.62;118.99
75217;HTU21D;63800;51.972;5.682;2023-11-19T02:30:32;-10.63;118.99
75217;HTU21D;63800;51.972;5.682;2023-11-19T02:32:58;-10.63;118.99
75217;HTU21D;63800;51.972;5.682;2023-11-19T02:35:26;-10.63;118.99
75217;HTU21D;63800;51.972;5.682;2023-11-19T02:37:52;-10.67;118.99
75217;HTU21D;63800;51.972;5.682;2023-11-19T02:40:19;-10.68;118.99
75217;HTU21D;63800;51.972;5.682;2023-11-19T02:42:44;-10.67;118.99
75217;HTU21D;63800;51.972;5.682;2023-11-19T02:45:10;-10.67;118.99
75217;HTU21D;63800;51.972;5.682;2023-11-19T02:47:43;-10.64;118.99
75217;HTU21D;63800;51.972;5.682;2023-11-19T02:50:12;-10.65;118.99
75217;HTU21D;63800;51.972;5.682;2023-11-19T02:52:41;-10.65;118.99
75217;HTU21D;63800;51.972;5.682;2023-11-19T02:55:08;-10.66;118.99
75217;HTU21D;63800;51.972;5.682;2023-11-19T02:57:38;-10.66;118.99
75217;HTU21D;63800;51.972;5.682;2023-11-19T03:00:17;-10.66;118.99
75217;HTU21D;63800;51.972;5.682;2023-11-19T03:02:44;-10.64;118.99
75217;HTU21D;63800;51.972;5.682;2023-11-19T03:05:15;-10.66;118.99
75217;HTU21D;63800;51.972;5.682;2023-11-19T03:07:43;-10.63;118.99
75217;HTU21D;63800;51.972;5.682;2023-11-19T03:10:11;-10.64;118.99
75217;HTU21D;63800;51.972;5.682;2023-11-19T03:12:41;-10.61;118.99
75217;HTU21D;63800;51.972;5.682;2023-11-19T03:15:07;-10.60;118.99
75217;HTU21D;63800;51.972;5.682;2023-11-19T03:17:38;-10.60;118.99
75217;HTU21D;63800;51.972;5.682;2023-11-19T03:20:06;-10.63;118.99
75217;HTU21D;63800;51.972;5.682;2023-11-19T03:22:32;-10.65;118.99
75217;HTU21D;63800;51.972;5.682;2023-11-19T03:24:59;-10.65;118.99
75217;HTU21D;63800;51.972;5.682;2023-11-19T03:27:25;-10.66;118.99
75217;HTU21D;63800;51.972;5.682;2023-11-19T03:29:50;-10.67;118.99
75217;HTU21D;63800;51.972;5.682;2023-11-19T03:32:15;-10.68;118.99
75217;HTU21D;63800;51.972;5.682;2023-11-19T03:34:41;-10.73;118.99
75217;HTU21D;63800;51.972;5.682;2023-11-19T03:37:06;-10.70;118.99
75217;HTU21D;63800;51.972;5.682;2023-11-19T03:39:32;-10.70;118.99
75217;HTU21D;63800;51.972;5.682;2023-11-19T03:41:58;-10.71;118.99
75217;HTU21D;63800;51.972;5.682;2023-11-19T03:44:23;-10.75;118.99
75217;HTU21D;63800;51.972;5.682;2023-11-19T03:46:52;-10.75;118.99
75217;HTU21D;63800;51.972;5.682;2023-11-19T03:49:17;-10.78;118.99
75217;HTU21D;63800;51.972;5.682;2023-11-19T03:51:43;-10.77;118.99
75217;HTU21D;63800;51.972;5.682;2023-11-19T03:54:08;-10.79;118.99
75217;HTU21D;63800;51.972;5.682;2023-11-19T03:56:34;-10.79;118.99
75217;HTU21D;63800;51.972;5.682;2023-11-19T03:58:59;-10.79;118.99
75217;HTU21D;63800;51.972;5.682;2023-11-19T04:01:25;-10.80;118.99
75217;HTU21D;63800;51.972;5.682;2023-11-19T04:03:50;-10.79;118.99
75217;HTU21D;63800;51.972;5.682;2023-11-19T04:06:15;-10.63;118.99
75217;HTU21D;63800;51.972;5.682;2023-11-19T04:08:41;-10.82;118.99
75217;HTU21D;63800;51.972;5.682;2023-11-19T04:11:06;-10.80;118.99
75217;HTU21D;63800;51.972;5.682;2023-11-19T04:13:34;-10.82;118.99
75217;HTU21D;63800;51.972;5.682;2023-11-19T04:15:59;-10.79;118.99
75217;HTU21D;63800;51.972;5.682;2023-11-19T04:18:25;-10.81;118.99
75217;HTU21D;63800;51.972;5.682;2023-11-19T04:20:50;-10.82;118.99
75217;HTU21D;63800;51.972;5.682;2023-11-19T04:23:16;-10.80;118.99
75217;HTU21D;63800;51.972;5.682;2023-11-19T04:25:41;-10.79;118.99
75217;HTU21D;63800;51.972;5.682;2023-11-19T04:28:07;-10.80;118.99
75217;HTU21D;63800;51.972;5.682;2023-11-19T04:30:33;-10.79;118.99
75217;HTU21D;63800;51.972;5.682;2023-11-19T04:32:59;-10.76;118.99
75217;HTU21D;63800;51.972;5.682;2023-11-19T04:35:24;-10.76;118.99
75217;HTU21D;63800;51.972;5.682;2023-11-19T04:37:50;-10.75;118.99
75217;HTU21D;63800;51.972;5.682;2023-11-19T04:40:16;-10.75;118.99
75217;HTU21D;63800;51.972;5.682;2023-11-19T04:42:43;-10.74;118.99
75217;HTU21D;63800;51.972;5.682;2023-11-19T04:45:09;-10.75;118.99
75217;HTU21D;63800;51.972;5.682;2023-11-19T04:47:36;-10.77;118.99
75217;HTU21D;63800;51.972;5.682;2023-11-19T04:50:02;-10.77;118.99
75217;HTU21D;63800;51.972;5.682;2023-11-19T04:52:28;-10.74;118.99
75217;HTU21D;63800;51.972;5.682;2023-11-19T04:54:53;-10.75;118.99
75217;HTU21D;63800;51.972;5.682;2023-11-19T04:57:19;-10.72;118.99
75217;HTU21D;63800;51.972;5.682;2023-11-19T04:59:44;-10.73;118.99
75217;HTU21D;63800;51.972;5.682;2023-11-19T05:02:10;-10.70;118.99
75217;HTU21D;63800;51.972;5.682;2023-11-19T05:04:36;-10.70;118.99
75217;HTU21D;63800;51.972;5.682;2023-11-19T05:07:03;-10.68;118.99
75217;HTU21D;63800;51.972;5.682;2023-11-19T05:09:28;-10.73;118.99
75217;HTU21D;63800;51.972;5.682;2023-11-19T05:11:54;-10.71;118.99
75217;HTU21D;63800;51.972;5.682;2023-11-19T05:14:19;-10.73;118.99
75217;HTU21D;63800;51.972;5.682;2023-11-19T05:16:45;-10.76;118.99
75217;HTU21D;63800;51.972;5.682;2023-11-19T05:19:11;-10.75;118.99
75217;HTU21D;63800;51.972;5.682;2023-11-19T05:21:37;-10.74;118.99
75217;HTU21D;63800;51.972;5.682;2023-11-19T05:24:02;-10.72;118.99
75217;HTU21D;63800;51.972;5.682;2023-11-19T05:26:31;-10.77;118.99
75217;HTU21D;63800;51.972;5.682;2023-11-19T05:28:56;-10.78;118.99
75217;HTU21D;63800;51.972;5.682;2023-11-19T05:31:22;-10.74;118.99
75217;HTU21D;63800;51.972;5.682;2023-11-19T05:33:47;-10.70;118.99
75217;HTU21D;63800;51.972;5.682;2023-11-19T05:36:13;-10.68;118.99
75217;HTU21D;63800;51.972;5.682;2023-11-19T05:38:39;-10.66;118.99
75217;HTU21D;63800;51.972;5.682;2023-11-19T05:41:05;-10.65;118.99
75217;HTU21D;63800;51.972;5.682;2023-11-19T05:43:31;-10.64;118.99
75217;HTU21D;63800;51.972;5.682;2023-11-19T05:45:57;-10.62;118.99
75217;HTU21D;63800;51.972;5.682;2023-11-19T05:48:22;-10.62;118.99
75217;HTU21D;63800;51.972;5.682;2023-11-19T05:50:48;-10.64;118.99
75217;HTU21D;63800;51.972;5.682;2023-11-19T05:53:15;-10.63;118.99
75217;HTU21D;63800;51.972;5.682;2023-11-19T05:55:41;-10.62;118.99
75217;HTU21D;63800;51.972;5.682;2023-11-19T05:58:14;-10.66;118.99
75217;HTU21D;63800;51.972;5.682;2023-11-19T06:00:39;-10.65;118.99
75217;HTU21D;63800;51.972;5.682;2023-11-19T06:03:06;-10.66;118.99
75217;HTU21D;63800;51.972;5.682;2023-11-19T06:05:32;-10.72;118.99
75217;HTU21D;63800;51.972;5.682;2023-11-19T06:07:58;-10.72;118.99
75217;HTU21D;63800;51.972;5.682;2023-11-19T06:10:23;-10.74;118.99
75217;HTU21D;63800;51.972;5.682;2023-11-19T06:12:58;-10.71;118.99
75217;HTU21D;63800;51.972;5.682;2023-11-19T06:15:25;-10.71;118.99
75217;HTU21D;63800;51.972;5.682;2023-11-19T06:17:52;-10.76;118.99
75217;HTU21D;63800;51.972;5.682;2023-11-19T06:20:18;-10.76;118.99
75217;HTU21D;63800;51.972;5.682;2023-11-19T06:22:45;-10.76;118.99
75217;HTU21D;63800;51.972;5.682;2023-11-19T06:25:11;-10.77;118.99
75217;HTU21D;63800;51.972;5.682;2023-11-19T06:27:36;-10.78;118.99
75217;HTU21D;63800;51.972;5.682;2023-11-19T06:30:03;-10.80;118.99
75217;HTU21D;63800;51.972;5.682;2023-11-19T06:32:28;-10.79;118.99
75217;HTU21D;63800;51.972;5.682;2023-11-19T06:34:54;-10.80;118.99
75217;HTU21D;63800;51.972;5.682;2023-11-19T06:37:20;-10.78;118.99
75217;HTU21D;63800;51.972;5.682;2023-11-19T06:39:45;-10.79;118.99
75217;HTU21D;63800;51.972;5.682;2023-11-19T06:42:11;-10.79;118.99
75217;HTU21D;63800;51.972;5.682;2023-11-19T06:44:36;-10.78;118.99
75217;HTU21D;63800;51.972;5.682;2023-11-19T06:47:02;-10.77;118.99
75217;HTU21D;63800;51.972;5.682;2023-11-19T06:49:27;-10.76;118.99
75217;HTU21D;63800;51.972;5.682;2023-11-19T06:51:53;-10.74;118.99
75217;HTU21D;63800;51.972;5.682;2023-11-19T06:54:18;-10.76;118.99
75217;HTU21D;63800;51.972;5.682;2023-11-19T06:56:44;-10.76;118.99
75217;HTU21D;63800;51.972;5.682;2023-11-19T06:59:09;-10.77;118.99
75217;HTU21D;63800;51.972;5.682;2023-11-19T07:01:35;-10.89;118.99
75217;HTU21D;63800;51.972;5.682;2023-11-19T07:04:01;-10.77;118.99
75217;HTU21D;63800;51.972;5.682;2023-11-19T07:06:33;-10.78;118.99
75217;HTU21D;63800;51.972;5.682;2023-11-19T07:08:58;-10.79;118.99
75217;HTU21D;63800;51.972;5.682;2023-11-19T07:11:24;-10.80;118.99
75217;HTU21D;63800;51.972;5.682;2023-11-19T07:13:49;-10.78;118.99
75217;HTU21D;63800;51.972;5.682;2023-11-19T07:16:15;-10.82;118.99
75217;HTU21D;63800;51.972;5.682;2023-11-19T07:18:40;-10.96;118.99
75217;HTU21D;63800;51.972;5.682;2023-11-19T07:21:09;-10.80;118.99
75217;HTU21D;63800;51.972;5.682;2023-11-19T07:23:35;-10.81;118.99
75217;HTU21D;63800;51.972;5.682;2023-11-19T07:26:01;-10.79;118.99
75217;HTU21D;63800;51.972;5.682;2023-11-19T07:28:26;-10.80;118.99
75217;HTU21D;63800;51.972;5.682;2023-11-19T07:30:54;-10.78;118.99
75217;HTU21D;63800;51.972;5.682;2023-11-19T07:33:21;-10.75;118.99
75217;HTU21D;63800;51.972;5.682;2023-11-19T07:35:47;-10.71;118.99
75217;HTU21D;63800;51.972;5.682;2023-11-19T07:38:13;-10.73;118.99
75217;HTU21D;63800;51.972;5.682;2023-11-19T07:40:38;-10.72;118.99
75217;HTU21D;63800;51.972;5.682;2023-11-19T07:43:04;-10.68;118.99
75217;HTU21D;63800;51.972;5.682;2023-11-19T07:45:29;-10.66;118.99
75217;HTU21D;63800;51.972;5.682;2023-11-19T07:47:55;-10.67;118.99
75217;HTU21D;63800;51.972;5.682;2023-11-19T07:50:20;-10.66;118.99
75217;HTU21D;63800;51.972;5.682;2023-11-19T07:52:46;-10.64;118.99
75217;HTU21D;63800;51.972;5.682;2023-11-19T07:55:11;-10.64;118.99
75217;HTU21D;63800;51.972;5.682;2023-11-19T07:57:37;-10.60;118.99
75217;HTU21D;63800;51.972;5.682;2023-11-19T08:00:03;-10.58;118.99
75217;HTU21D;63800;51.972;5.682;2023-11-19T08:02:29;-10.53;118.99
75217;HTU21D;63800;51.972;5.682;2023-11-19T08:04:54;-10.56;118.99
75217;HTU21D;63800;51.972;5.682;2023-11-19T08:07:21;-10.55;118.99
75217;HTU21D;63800;51.972;5.682;2023-11-19T08:09:47;-10.53;118.99
75217;HTU21D;63800;51.972;5.682;2023-11-19T08:12:12;-10.51;118.99
75217;HTU21D;63800;51.972;5.682;2023-11-19T08:14:41;-10.52;118.99
75217;HTU21D;63800;51.972;5.682;2023-11-19T08:17:06;-10.49;118.99
75217;HTU21D;63800;51.972;5.682;2023-11-19T08:19:32;-10.48;118.99
75217;HTU21D;63800;51.972;5.682;2023-11-19T08:21:57;-10.43;118.99
75217;HTU21D;63800;51.972;5.682;2023-11-19T08:24:23;-10.43;118.99
75217;HTU21D;63800;51.972;5.682;2023-11-19T08:26:48;-10.42;118.99
75217;HTU21D;63800;51.972;5.682;2023-11-19T08:29:14;-10.37;118.99
75217;HTU21D;63800;51.972;5.682;2023-11-19T08:31:39;-10.35;118.99
75217;HTU21D;63800;51.972;5.682;2023-11-19T08:34:05;-10.35;118.99
75217;HTU21D;63800;51.972;5.682;2023-11-19T08:36:34;-10.37;118.99
75217;HTU21D;63800;51.972;5.682;2023-11-19T08:38:59;-10.36;118.99
75217;HTU21D;63800;51.972;5.682;2023-11-19T08:41:25;-10.32;118.99
75217;HTU21D;63800;51.972;5.682;2023-11-19T08:43:50;-10.27;118.99
75217;HTU21D;63800;51.972;5.682;2023-11-19T08:46:17;-10.17;118.99
75217;HTU21D;63800;51.972;5.682;2023-11-19T08:48:42;-10.16;118.99
75217;HTU21D;63800;51.972;5.682;2023-11-19T08:51:07;-10.12;118.99
75217;HTU21D;63800;51.972;5.682;2023-11-19T08:53:33;-10.10;118.99
75217;HTU21D;63800;51.972;5.682;2023-11-19T08:55:59;-10.08;118.99
75217;HTU21D;63800;51.972;5.682;2023-11-19T08:58:25;-10.08;118.99
75217;HTU21D;63800;51.972;5.682;2023-11-19T09:00:51;-10.05;118.99
75217;HTU21D;63800;51.972;5.682;2023-11-19T09:03:16;-10.07;118.99
75217;HTU21D;63800;51.972;5.682;2023-11-19T09:05:42;-10.07;118.99
75217;HTU21D;63800;51.972;5.682;2023-11-19T09:08:07;-10.03;118.99
75217;HTU21D;63800;51.972;5.682;2023-11-19T09:10:33;-10.00;118.99
75217;HTU21D;63800;51.972;5.682;2023-11-19T09:12:59;-9.97;118.99
75217;HTU21D;63800;51.972;5.682;2023-11-19T09:15:24;-9.93;118.99
75217;HTU21D;63800;51.972;5.682;2023-11-19T09:17:49;-9.93;118.99
75217;HTU21D;63800;51.972;5.682;2023-11-19T09:20:15;-9.90;118.99
75217;HTU21D;63800;51.972;5.682;2023-11-19T09:22:41;-9.91;118.99
75217;HTU21D;63800;51.972;5.682;2023-11-19T09:25:07;-9.92;118.99
75217;HTU21D;63800;51.972;5.682;2023-11-19T09:27:33;-9.88;118.99
75217;HTU21D;63800;51.972;5.682;2023-11-19T09:29:58;-9.84;118.99
75217;HTU21D;63800;51.972;5.682;2023-11-19T09:32:24;-9.81;118.99
75217;HTU21D;63800;51.972;5.682;2023-11-19T09:34:50;-9.84;118.99
75217;HTU21D;63800;51.972;5.682;2023-11-19T09:37:15;-9.81;118.99
75217;HTU21D;63800;51.972;5.682;2023-11-19T09:39:41;-9.79;118.99
75217;HTU21D;63800;51.972;5.682;2023-11-19T09:42:09;-9.79;118.99
75217;HTU21D;63800;51.972;5.682;2023-11-19T09:44:37;-9.75;118.99
75217;HTU21D;63800;51.972;5.682;2023-11-19T09:47:04;-9.68;118.99
75217;HTU21D;63800;51.972;5.682;2023-11-19T09:49:30;-9.67;118.99
75217;HTU21D;63800;51.972;5.682;2023-11-19T09:51:56;-9.60;118.99
75217;HTU21D;63800;51.972;5.682;2023-11-19T09:54:23;-9.52;118.99
75217;HTU21D;63800;51.972;5.682;2023-11-19T09:56:48;-9.52;118.99
75217;HTU21D;63800;51.972;5.682;2023-11-19T09:59:14;-9.51;118.99
75217;HTU21D;63800;51.972;5.682;2023-11-19T10:01:40;-9.49;118.99
75217;HTU21D;63800;51.972;5.682;2023-11-19T10:04:06;-9.52;118.99
75217;HTU21D;63800;51.972;5.682;2023-11-19T10:06:32;-9.51;118.99
75217;HTU21D;63800;51.972;5.682;2023-11-19T10:08:58;-9.57;118.99
75217;HTU21D;63800;51.972;5.682;2023-11-19T10:11:25;-9.53;118.99
75217;HTU21D;63800;51.972;5.682;2023-11-19T10:13:52;-9.53;118.99
75217;HTU21D;63800;51.972;5.682;2023-11-19T10:16:18;-9.54;118.99
75217;HTU21D;63800;51.972;5.682;2023-11-19T10:18:49;-9.54;118.99
75217;HTU21D;63800;51.972;5.682;2023-11-19T10:21:17;-9.51;118.99
75217;HTU21D;63800;51.972;5.682;2023-11-19T10:23:55;-9.52;118.99
75217;HTU21D;63800;51.972;5.682;2023-11-19T10:26:23;-9.53;118.99
75217;HTU21D;63800;51.972;5.682;2023-11-19T10:28:49;-9.49;118.99
75217;HTU21D;63800;51.972;5.682;2023-11-19T10:31:19;-9.47;118.99
75217;HTU21D;63800;51.972;5.682;2023-11-19T10:33:46;-9.38;118.99
75217;HTU21D;63800;51.972;5.682;2023-11-19T10:36:12;-9.14;118.99
75217;HTU21D;63800;51.972;5.682;2023-11-19T10:38:38;-9.05;118.99
75217;HTU21D;63800;51.972;5.682;2023-11-19T10:41:04;-8.96;118.99
75217;HTU21D;63800;51.972;5.682;2023-11-19T10:43:31;-8.79;118.99
75217;HTU21D;63800;51.972;5.682;2023-11-19T10:46:10;-8.60;118.99
75217;HTU21D;63800;51.972;5.682;2023-11-19T10:48:36;-8.62;118.99
75217;HTU21D;63800;51.972;5.682;2023-11-19T10:51:05;-8.58;118.99
75217;HTU21D;63800;51.972;5.682;2023-11-19T10:53:35;-8.63;118.99
75217;HTU21D;63800;51.972;5.682;2023-11-19T10:56:02;-8.63;118.99
75217;HTU21D;63800;51.972;5.682;2023-11-19T10:58:32;-8.54;118.99
75217;HTU21D;63800;51.972;5.682;2023-11-19T11:01:03;-8.48;118.99
75217;HTU21D;63800;51.972;5.682;2023-11-19T11:03:39;-8.45;118.99
75217;HTU21D;63800;51.972;5.682;2023-11-19T11:06:05;-8.49;118.99
75217;HTU21D;63800;51.972;5.682;2023-11-19T11:08:31;-8.22;118.99
75217;HTU21D;63800;51.972;5.682;2023-11-19T11:10:57;-8.31;118.99
75217;HTU21D;63800;51.972;5.682;2023-11-19T11:13:24;-8.40;118.99
75217;HTU21D;63800;51.972;5.682;2023-11-19T11:15:51;-8.50;118.99
75217;HTU21D;63800;51.972;5.682;2023-11-19T11:18:17;-8.67;118.99
75217;HTU21D;63800;51.972;5.682;2023-11-19T11:20:46;-8.71;118.99
75217;HTU21D;63800;51.972;5.682;2023-11-19T11:31:29;-8.95;118.99
75217;HTU21D;63800;51.972;5.682;2023-11-19T11:37:00;-9.05;118.99
75217;HTU21D;63800;51.972;5.682;2023-11-19T11:39:29;-9.05;118.99
75217;HTU21D;63800;51.972;5.682;2023-11-19T11:50:30;-8.73;118.99
75217;HTU21D;63800;51.972;5.682;2023-11-19T11:55:35;-8.70;118.99
75217;HTU21D;63800;51.972;5.682;2023-11-19T11:58:05;-8.18;118.99
75217;HTU21D;63800;51.972;5.682;2023-11-19T12:00:37;-7.02;118.99
75217;HTU21D;63800;51.972;5.682;2023-11-19T12:03:06;-7.46;118.99
75217;HTU21D;63800;51.972;5.682;2023-11-19T12:05:41;-8.25;118.99
75217;HTU21D;63800;51.972;5.682;2023-11-19T12:08:14;-8.49;118.99
75217;HTU21D;63800;51.972;5.682;2023-11-19T12:10:51;-8.75;118.99
75217;HTU21D;63800;51.972;5.682;2023-11-19T12:13:18;-8.43;118.99
75217;HTU21D;63800;51.972;5.682;2023-11-19T12:18:26;-8.07;118.99
75217;HTU21D;63800;51.972;5.682;2023-11-19T12:20:52;-7.97;118.99
75217;HTU21D;63800;51.972;5.682;2023-11-19T12:23:17;-8.30;118.99
75217;HTU21D;63800;51.972;5.682;2023-11-19T12:25:43;-8.52;118.99
75217;HTU21D;63800;51.972;5.682;2023-11-19T12:28:13;-8.22;118.99
75217;HTU21D;63800;51.972;5.682;2023-11-19T12:30:39;-7.60;118.99
75217;HTU21D;63800;51.972;5.682;2023-11-19T12:33:08;-7.47;118.99
75217;HTU21D;63800;51.972;5.682;2023-11-19T12:35:46;-7.83;118.99
75217;HTU21D;63800;51.972;5.682;2023-11-19T12:38:22;-8.09;118.99
75217;HTU21D;63800;51.972;5.682;2023-11-19T12:41:02;-8.31;118.99
75217;HTU21D;63800;51.972;5.682;2023-11-19T12:43:28;-8.42;118.99
75217;HTU21D;63800;51.972;5.682;2023-11-19T12:45:53;-8.42;118.99
75217;HTU21D;63800;51.972;5.682;2023-11-19T12:48:19;-8.53;118.99
75217;HTU21D;63800;51.972;5.682;2023-11-19T12:50:51;-8.30;118.99
75217;HTU21D;63800;51.972;5.682;2023-11-19T12:53:18;-8.45;118.99
75217;HTU21D;63800;51.972;5.682;2023-11-19T12:55:44;-8.40;118.99
75217;HTU21D;63800;51.972;5.682;2023-11-19T12:58:10;-8.28;118.99
75217;HTU21D;63800;51.972;5.682;2023-11-19T13:00:37;-8.31;118.99
75217;HTU21D;63800;51.972;5.682;2023-11-19T13:03:03;-8.30;118.99
75217;HTU21D;63800;51.972;5.682;2023-11-19T13:05:32;-8.44;118.99
75217;HTU21D;63800;51.972;5.682;2023-11-19T13:08:05;-8.43;118.99
75217;HTU21D;63800;51.972;5.682;2023-11-19T13:10:50;-8.65;118.99
75217;HTU21D;63800;51.972;5.682;2023-11-19T13:13:16;-8.69;118.99
75217;HTU21D;63800;51.972;5.682;2023-11-19T13:15:42;-8.82;118.99
75217;HTU21D;63800;51.972;5.682;2023-11-19T13:18:10;-8.85;118.99
75217;HTU21D;63800;51.972;5.682;2023-11-19T13:20:36;-8.88;118.99
75217;HTU21D;63800;51.972;5.682;2023-11-19T13:23:03;-8.93;118.99
75217;HTU21D;63800;51.972;5.682;2023-11-19T13:25:30;-8.94;118.99
75217;HTU21D;63800;51.972;5.682;2023-11-19T13:27:56;-8.94;118.99
75217;HTU21D;63800;51.972;5.682;2023-11-19T13:30:22;-8.90;118.99
75217;HTU21D;63800;51.972;5.682;2023-11-19T13:32:48;-8.99;118.99
75217;HTU21D;63800;51.972;5.682;2023-11-19T13:35:14;-8.88;118.99
75217;HTU21D;63800;51.972;5.682;2023-11-19T13:37:40;-8.86;118.99
75217;HTU21D;63800;51.972;5.682;2023-11-19T13:40:07;-8.89;118.99
75217;HTU21D;63800;51.972;5.682;2023-11-19T13:42:33;-8.88;118.99
75217;HTU21D;63800;51.972;5.682;2023-11-19T13:44:58;-8.92;118.99
75217;HTU21D;63800;51.972;5.682;2023-11-19T13:47:24;-8.90;118.99
75217;HTU21D;63800;51.972;5.682;2023-11-19T13:49:49;-8.98;118.99
75217;HTU21D;63800;51.972;5.682;2023-11-19T13:52:15;-9.09;118.99
75217;HTU21D;63800;51.972;5.682;2023-11-19T13:54:40;-9.26;118.99
75217;HTU21D;63800;51.972;5.682;2023-11-19T13:57:06;-9.29;118.99
75217;HTU21D;63800;51.972;5.682;2023-11-19T13:59:31;-9.28;118.99
75217;HTU21D;63800;51.972;5.682;2023-11-19T14:01:59;-9.24;118.99
75217;HTU21D;63800;51.972;5.682;2023-11-19T14:04:25;-9.34;118.99
75217;HTU21D;63800;51.972;5.682;2023-11-19T14:06:51;-9.39;118.99
75217;HTU21D;63800;51.972;5.682;2023-11-19T14:09:17;-9.23;118.99
75217;HTU21D;63800;51.972;5.682;2023-11-19T14:11:43;-9.18;118.99
75217;HTU21D;63800;51.972;5.682;2023-11-19T14:14:09;-9.11;118.99
75217;HTU21D;63800;51.972;5.682;2023-11-19T14:16:34;-9.15;118.99
75217;HTU21D;63800;51.972;5.682;2023-11-19T14:19:00;-9.12;118.99
75217;HTU21D;63800;51.972;5.682;2023-11-19T14:21:25;-9.09;118.99
75217;HTU21D;63800;51.972;5.682;2023-11-19T14:23:52;-9.14;118.99
75217;HTU21D;63800;51.972;5.682;2023-11-19T14:26:17;-9.18;118.99
75217;HTU21D;63800;51.972;5.682;2023-11-19T14:28:43;-9.23;118.99
75217;HTU21D;63800;51.972;5.682;2023-11-19T14:31:09;-9.23;118.99
75217;HTU21D;63800;51.972;5.682;2023-11-19T14:33:34;-9.32;118.99
75217;HTU21D;63800;51.972;5.682;2023-11-19T14:36:01;-9.36;118.99
75217;HTU21D;63800;51.972;5.682;2023-11-19T14:38:27;-9.37;118.99
75217;HTU21D;63800;51.972;5.682;2023-11-19T14:40:52;-9.43;118.99
75217;HTU21D;63800;51.972;5.682;2023-11-19T14:43:18;-9.43;118.99
75217;HTU21D;63800;51.972;5.682;2023-11-19T14:45:43;-9.47;118.99
75217;HTU21D;63800;51.972;5.682;2023-11-19T14:48:09;-9.47;118.99
75217;HTU21D;63800;51.972;5.682;2023-11-19T14:50:35;-9.47;118.99
75217;HTU21D;63800;51.972;5.682;2023-11-19T14:53:01;-9.53;118.99
75217;HTU21D;63800;51.972;5.682;2023-11-19T14:55:26;-9.54;118.99
75217;HTU21D;63800;51.972;5.682;2023-11-19T14:57:52;-9.52;118.99
75217;HTU21D;63800;51.972;5.682;2023-11-19T15:00:17;-9.54;118.99
75217;HTU21D;63800;51.972;5.682;2023-11-19T15:02:43;-9.56;118.99
75217;HTU21D;63800;51.972;5.682;2023-11-19T15:05:08;-9.56;118.99
75217;HTU21D;63800;51.972;5.682;2023-11-19T15:07:37;-9.53;118.99
75217;HTU21D;63800;51.972;5.682;2023-11-19T15:10:03;-9.57;118.99
75217;HTU21D;63800;51.972;5.682;2023-11-19T15:12:29;-9.54;118.99
75217;HTU21D;63800;51.972;5.682;2023-11-19T15:14:54;-9.55;118.99